Latest Weather Observations for Spring Bay

IDT60801

Issued at 5:35 pm EST Tuesday 2 September 2014 (issued every 30 minutes, with the page automatically refreshed every 10 minutes)

About weather observations | Map of weather stations | Latest weather observations for TAS | Other Formats
Station Details ID: 092133 Name: SPRING BAY NTC AWS Lat: -42.55 Lon: 147.93 Height: 0.0 m
Data from the previous 72 hours. | See also: Recent months for locations in Tasmania
Date/Time
EST
Temp
°C
App
Temp
°C
Dew
Point
Rel
Hum
%
Delta-T
°C
Wind Press
QNH
hPa
Press
MSL
hPa
Rain
since 9 am
mm
Dir
 
Spd
km/h
Gust
km/h
Spd
kts
Gust
kts
02/05:30pm 9.8 - - - - S 26 32 14 17 1019.0 1019.0 -
02/05:00pm 9.9 - - - - S 22 32 12 17 1018.6 1018.6 -
02/04:30pm 10.4 - - - - S 30 41 16 22 1018.1 1018.1 -
02/04:00pm 11.2 - - - - SSE 35 41 19 22 1017.5 1017.5 -
02/03:30pm 11.5 - - - - SSE 32 39 17 21 1017.2 1017.2 -
02/03:00pm 11.5 - - - - SSE 33 43 18 23 1017.0 1017.0 -
02/02:30pm 12.0 - - - - S 28 39 15 21 1016.8 1016.8 -
02/02:00pm 11.9 - - - - SSW 26 35 14 19 1016.6 1016.6 -
02/01:30pm 11.7 - - - - S 32 39 17 21 1016.7 1016.7 -
02/01:00pm 11.7 - - - - S 22 37 12 20 1016.9 1016.9 -
02/12:30pm 11.6 - - - - S 22 33 12 18 1017.0 1017.0 -
02/12:00pm 11.5 - - - - S 24 35 13 19 1017.1 1017.1 -
02/11:30am 11.4 - - - - SSW 28 37 15 20 1017.3 1017.3 -
02/11:00am 11.4 - - - - S 22 32 12 17 1017.2 1017.2 -
02/10:30am 10.7 - - - - S 24 33 13 18 1017.2 1017.2 -
02/10:00am 10.6 - - - - SSW 24 32 13 17 1017.1 1017.1 -
02/09:30am 10.3 - - - - SW 20 26 11 14 1016.8 1016.8 -
02/09:00am 9.4 - - - - SW 20 32 11 17 1016.7 1016.7 -
02/08:30am 9.1 - - - - WSW 20 26 11 14 1016.5 1016.5 -
02/08:00am 8.6 - - - - SW 20 28 11 15 1016.3 1016.3 -
02/07:30am 8.2 - - - - SW 20 28 11 15 1016.0 1016.0 -
02/07:00am 7.9 - - - - SW 28 32 15 17 1015.6 1015.6 -
02/06:30am 8.1 - - - - SW 30 35 16 19 1015.1 1015.1 -
02/06:00am 8.3 - - - - SW 30 35 16 19 1014.7 1014.7 -
02/05:30am 8.5 - - - - SW 28 33 15 18 1014.2 1014.2 -
02/05:00am 8.3 - - - - SW 26 32 14 17 1013.7 1013.7 -
02/04:30am 8.2 - - - - SW 24 32 13 17 1013.3 1013.3 -
02/04:00am 8.3 - - - - SW 24 32 13 17 1012.8 1012.8 -
02/03:30am 8.5 - - - - SW 22 28 12 15 1012.4 1012.4 -
02/03:00am 8.5 - - - - WSW 17 26 9 14 1012.2 1012.2 -
02/02:30am 8.4 - - - - WSW 15 20 8 11 1012.2 1012.2 -
02/02:00am 8.8 - - - - SW 17 22 9 12 1012.1 1012.1 -
02/01:30am 8.8 - - - - SW 17 26 9 14 1011.9 1011.9 -
02/01:00am 10.2 - - - - S 22 26 12 14 1011.7 1011.7 -
02/12:30am 9.9 - - - - SSW 20 24 11 13 1011.6 1011.6 -
02/12:00am 10.2 - - - - SSW 19 22 10 12 1011.2 1011.2 -
 
Date/Time
EST
Temp
°C
App
Temp
°C
Dew
Point
Rel
Hum
%
Delta-T
°C
Wind Press
QNH
hPa
Press
MSL
hPa
Rain
since 9 am
mm
Dir
 
Spd
km/h
Gust
km/h
Spd
kts
Gust
kts
01/11:30pm 10.5 - - - - S 26 35 14 19 1010.8 1010.8 -
01/11:00pm 10.2 - - - - SSW 17 20 9 11 1010.4 1010.4 -
01/10:30pm 10.6 - - - - S 15 19 8 10 1010.5 1010.5 -
01/10:00pm 10.5 - - - - S 19 26 10 14 1009.9 1009.9 -
01/09:30pm 10.7 - - - - S 20 33 11 18 1009.5 1009.5 -
01/09:00pm 10.3 - - - - SW 20 32 11 17 1009.3 1009.3 -
01/08:30pm 10.1 - - - - SW 19 28 10 15 1008.9 1008.9 -
01/08:00pm 10.6 - - - - S 19 28 10 15 1008.2 1008.2 -
01/07:30pm 10.4 - - - - S 26 39 14 21 1007.5 1007.5 -
01/07:00pm 10.5 - - - - S 22 35 12 19 1007.0 1007.0 -
01/06:30pm 10.9 - - - - S 22 32 12 17 1006.3 1006.3 -
01/06:00pm 10.9 - - - - SSW 26 37 14 20 1005.6 1005.6 -
01/05:30pm 10.7 - - - - SSW 15 24 8 13 1005.0 1005.0 -
01/05:00pm 10.8 - - - - SSW 22 33 12 18 1004.4 1004.4 -
01/04:30pm 11.2 - - - - SW 24 32 13 17 1003.8 1003.8 -
01/04:00pm 11.5 - - - - SSW 15 22 8 12 1002.9 1002.9 -
01/03:30pm 11.5 - - - - S 9 20 5 11 1002.6 1002.6 -
01/03:00pm 11.7 - - - - S 28 37 15 20 1002.0 1002.0 -
01/02:42pm 13.9 - - - - W 33 44 18 24 1001.7 1001.7 -
01/02:30pm 15.0 - - - - WNW 44 59 24 32 1001.5 1001.5 -
01/02:05pm 15.2 - - - - WNW 41 61 22 33 1001.5 1001.5 -
01/02:00pm 14.9 - - - - NW 43 59 23 32 1001.5 1001.5 -
01/01:48pm 15.1 - - - - NW 43 65 23 35 1001.6 1001.6 -
01/01:30pm 15.2 - - - - NW 44 59 24 32 1001.5 1001.5 -
01/01:00pm 15.4 - - - - NW 44 76 24 41 1001.6 1001.6 -
01/12:37pm 15.3 - - - - NW 37 65 20 35 1001.7 1001.7 -
01/12:30pm 15.2 - - - - NW 37 56 20 30 1001.7 1001.7 -
01/12:00pm 15.4 - - - - NW 43 61 23 33 1002.0 1002.0 -
01/11:30am 15.7 - - - - NW 43 61 23 33 1002.4 1002.4 -
01/11:04am 16.0 - - - - NW 37 59 20 32 1002.6 1002.6 -
01/11:00am 15.8 - - - - NW 39 50 21 27 1002.6 1002.6 -
01/10:55am 16.3 - - - - NW 39 46 21 25 1002.6 1002.6 -
01/10:30am 15.8 - - - - N 6 26 3 14 1002.7 1002.7 -
01/10:00am 14.7 - - - - E 6 9 3 5 1003.2 1003.2 -
01/09:30am 14.4 - - - - NE 6 9 3 5 1003.9 1003.9 -
01/09:00am 13.3 - - - - WSW 4 6 2 3 1004.4 1004.4 -
01/08:30am 13.1 - - - - NW 4 7 2 4 1004.5 1004.5 -
01/08:00am 12.9 - - - - WNW 6 7 3 4 1004.5 1004.5 -
01/07:30am 13.3 - - - - WSW 11 13 6 7 1004.8 1004.8 -
01/07:00am 13.1 - - - - WNW 7 11 4 6 1004.8 1004.8 -
01/06:30am 13.3 - - - - NW 13 17 7 9 1005.4 1005.4 -
01/06:00am 13.7 - - - - NNW 17 22 9 12 1005.6 1005.6 -
01/05:30am 13.7 - - - - NW 19 20 10 11 1005.5 1005.5 -
01/05:00am 13.8 - - - - NW 13 17 7 9 1005.7 1005.7 -
01/04:30am 12.9 - - - - WNW 15 19 8 10 1006.0 1006.0 -
01/04:00am 12.8 - - - - WNW 11 15 6 8 1006.0 1006.0 -
01/03:30am 13.0 - - - - NW 15 19 8 10 1006.3 1006.3 -
01/03:00am 13.1 - - - - NNW 20 24 11 13 1006.5 1006.5 -
01/02:30am 13.3 - - - - NW 28 33 15 18 1007.0 1007.0 -
01/02:00am 13.6 - - - - WNW 22 30 12 16 1007.8 1007.8 -
01/01:30am 14.0 - - - - NW 32 37 17 20 1008.3 1008.3 -
01/01:00am 14.4 - - - - NNW 28 33 15 18 1008.4 1008.4 -
01/12:30am 14.6 - - - - NNW 28 37 15 20 1008.3 1008.3 -
01/12:00am 14.2 - - - - N 19 26 10 14 1008.9 1008.9 -
 
Date/Time
EST
Temp
°C
App
Temp
°C
Dew
Point
Rel
Hum
%
Delta-T
°C
Wind Press
QNH
hPa
Press
MSL
hPa
Rain
since 9 am
mm
Dir
 
Spd
km/h
Gust
km/h
Spd
kts
Gust
kts
31/11:30pm 14.3 - - - - N 20 33 11 18 1008.8 1008.8 -
31/11:00pm 14.2 - - - - N 19 28 10 15 1009.4 1009.4 -
31/10:30pm 14.5 - - - - N 20 33 11 18 1009.8 1009.8 -
31/10:00pm 14.5 - - - - N 22 33 12 18 1010.3 1010.3 -
31/09:30pm 15.0 - - - - NNW 30 35 16 19 1010.5 1010.5 -
31/09:00pm 15.4 - - - - NNW 26 35 14 19 1010.6 1010.6 -
31/08:30pm 15.6 - - - - NNW 20 30 11 16 1010.8 1010.8 -
31/08:00pm 15.8 - - - - NNW 19 32 10 17 1011.0 1011.0 -
31/07:30pm 15.2 - - - - NNW 15 28 8 15 1011.2 1011.2 -
31/07:00pm 15.3 - - - - NW 19 24 10 13 1011.2 1011.2 -
31/06:30pm 15.6 - - - - NNW 17 26 9 14 1011.1 1011.1 -
31/06:00pm 15.6 - - - - NW 11 19 6 10 1011.4 1011.4 -
31/05:30pm 15.9 - - - - NW 24 33 13 18 1011.3 1011.3 -
31/05:00pm 16.3 - - - - NW 22 32 12 17 1011.1 1011.1 -
31/04:30pm 16.1 - - - - NW 17 22 9 12 1011.3 1011.3 -
31/04:00pm 16.7 - - - - NW 24 33 13 18 1011.4 1011.4 -
31/03:30pm 16.2 - - - - NW 19 26 10 14 1011.7 1011.7 -
31/03:00pm 17.1 - - - - NW 11 17 6 9 1011.9 1011.9 -
31/02:30pm 17.3 - - - - NNW 9 13 5 7 1012.0 1012.0 -
31/02:00pm 16.8 - - - - WNW 19 26 10 14 1012.4 1012.4 -
31/01:30pm 17.8 - - - - NW 19 26 10 14 1012.6 1012.6 -
31/01:00pm 16.9 - - - - NW 19 26 10 14 1013.0 1013.0 -
31/12:30pm 16.6 - - - - NW 26 30 14 16 1013.7 1013.7 -
31/12:00pm 15.6 - - - - NW 24 33 13 18 1014.3 1014.3 -
31/11:30am 15.6 - - - - NW 24 32 13 17 1014.7 1014.7 -
31/11:22am 15.4 - - - - NW 28 32 15 17 1014.8 1014.8 -
31/11:00am 15.8 - - - - NW 9 13 5 7 1015.1 1015.1 -
31/10:30am 13.3 - - - - CALM 0 2 0 1 1015.6 1015.6 -
31/10:00am 12.7 - - - - WSW 4 9 2 5 1016.2 1016.2 -
31/09:30am 13.0 - - - - SW 4 7 2 4 1016.5 1016.5 -
31/09:00am 12.0 - - - - W 6 11 3 6 1016.7 1016.7 -
31/08:30am 11.3 - - - - S 6 7 3 4 1017.1 1017.1 -
31/08:00am 10.9 - - - - WNW 2 9 1 5 1017.2 1017.2 -
31/07:30am 9.8 - - - - NW 2 6 1 3 1017.2 1017.2 -
31/07:00am 10.2 - - - - NNW 6 9 3 5 1017.3 1017.3 -
31/06:30am 11.0 - - - - NNW 15 19 8 10 1017.4 1017.4 -
31/06:00am 11.0 - - - - NNW 15 22 8 12 1017.4 1017.4 -
31/05:30am 9.8 - - - - N 9 17 5 9 1017.5 1017.5 -
31/05:00am 9.8 - - - - S 4 9 2 5 1017.7 1017.7 -
31/04:30am 10.7 - - - - NNW 13 20 7 11 1017.9 1017.9 -
31/04:00am 10.9 - - - - N 15 20 8 11 1017.8 1017.8 -

Other Formats:

Comma delimited format used in spreadsheet applications
http://www.bom.gov.au/fwo/IDT60801/IDT60801.95987.axf

JavaScript Object Notation format (JSON) in row-major order
http://www.bom.gov.au/fwo/IDT60801/IDT60801.95987.json